sensor_id;sensor_type;location;lat;lon;timestamp;P1;durP1;ratioP1;P2;durP2;ratioP2
56233;SDS011;42141;53.240;6.580;2023-03-14T00:01:08;31.88;;;5.45;;
56233;SDS011;42141;53.240;6.580;2023-03-14T00:03:36;25.23;;;3.60;;
56233;SDS011;42141;53.240;6.580;2023-03-14T00:06:02;23.30;;;3.65;;
56233;SDS011;42141;53.240;6.580;2023-03-14T00:08:29;33.40;;;3.85;;
56233;SDS011;42141;53.240;6.580;2023-03-14T00:10:55;29.65;;;4.80;;
56233;SDS011;42141;53.240;6.580;2023-03-14T00:13:22;28.45;;;4.93;;
56233;SDS011;42141;53.240;6.580;2023-03-14T00:15:49;19.75;;;3.47;;
56233;SDS011;42141;53.240;6.580;2023-03-14T00:18:14;28.15;;;4.82;;
56233;SDS011;42141;53.240;6.580;2023-03-14T00:20:40;30.52;;;4.72;;
56233;SDS011;42141;53.240;6.580;2023-03-14T00:23:06;23.58;;;4.43;;
56233;SDS011;42141;53.240;6.580;2023-03-14T00:25:31;22.15;;;4.07;;
56233;SDS011;42141;53.240;6.580;2023-03-14T00:27:57;23.10;;;3.80;;
56233;SDS011;42141;53.240;6.580;2023-03-14T00:30:23;29.15;;;4.05;;
56233;SDS011;42141;53.240;6.580;2023-03-14T00:32:48;24.88;;;4.18;;
56233;SDS011;42141;53.240;6.580;2023-03-14T00:35:14;22.75;;;3.20;;
56233;SDS011;42141;53.240;6.580;2023-03-14T00:37:40;21.27;;;5.88;;
56233;SDS011;42141;53.240;6.580;2023-03-14T00:40:06;26.40;;;4.05;;
56233;SDS011;42141;53.240;6.580;2023-03-14T00:42:33;18.02;;;2.78;;
56233;SDS011;42141;53.240;6.580;2023-03-14T00:44:59;21.20;;;3.97;;
56233;SDS011;42141;53.240;6.580;2023-03-14T00:47:25;23.58;;;4.55;;
56233;SDS011;42141;53.240;6.580;2023-03-14T00:49:50;21.50;;;3.67;;
56233;SDS011;42141;53.240;6.580;2023-03-14T00:52:16;15.95;;;2.92;;
56233;SDS011;42141;53.240;6.580;2023-03-14T00:54:42;26.60;;;3.60;;
56233;SDS011;42141;53.240;6.580;2023-03-14T00:57:07;38.25;;;4.10;;
56233;SDS011;42141;53.240;6.580;2023-03-14T00:59:33;19.83;;;3.65;;
56233;SDS011;42141;53.240;6.580;2023-03-14T01:01:59;21.17;;;3.33;;
56233;SDS011;42141;53.240;6.580;2023-03-14T01:04:24;24.00;;;3.78;;
56233;SDS011;42141;53.240;6.580;2023-03-14T01:06:50;21.23;;;4.43;;
56233;SDS011;42141;53.240;6.580;2023-03-14T01:09:16;24.80;;;4.93;;
56233;SDS011;42141;53.240;6.580;2023-03-14T01:11:43;26.08;;;4.40;;
56233;SDS011;42141;53.240;6.580;2023-03-14T01:14:11;20.65;;;3.90;;
56233;SDS011;42141;53.240;6.580;2023-03-14T01:16:37;19.85;;;4.13;;
56233;SDS011;42141;53.240;6.580;2023-03-14T01:19:03;22.17;;;4.15;;
56233;SDS011;42141;53.240;6.580;2023-03-14T01:21:30;16.15;;;3.53;;
56233;SDS011;42141;53.240;6.580;2023-03-14T01:23:58;21.55;;;3.72;;
56233;SDS011;42141;53.240;6.580;2023-03-14T01:26:25;17.67;;;3.35;;
56233;SDS011;42141;53.240;6.580;2023-03-14T01:28:54;24.65;;;3.28;;
56233;SDS011;42141;53.240;6.580;2023-03-14T01:31:20;23.92;;;3.45;;
56233;SDS011;42141;53.240;6.580;2023-03-14T01:33:46;23.70;;;3.58;;
56233;SDS011;42141;53.240;6.580;2023-03-14T01:36:12;19.63;;;3.83;;
56233;SDS011;42141;53.240;6.580;2023-03-14T01:38:39;18.63;;;2.70;;
56233;SDS011;42141;53.240;6.580;2023-03-14T01:41:05;21.60;;;3.90;;
56233;SDS011;42141;53.240;6.580;2023-03-14T01:43:32;23.75;;;4.88;;
56233;SDS011;42141;53.240;6.580;2023-03-14T01:48:40;24.75;;;3.25;;
56233;SDS011;42141;53.240;6.580;2023-03-14T01:51:18;20.05;;;3.33;;
56233;SDS011;42141;53.240;6.580;2023-03-14T01:53:49;18.35;;;2.85;;
56233;SDS011;42141;53.240;6.580;2023-03-14T01:56:19;20.77;;;2.67;;
56233;SDS011;42141;53.240;6.580;2023-03-14T01:58:46;15.20;;;2.63;;
56233;SDS011;42141;53.240;6.580;2023-03-14T02:01:16;19.92;;;2.33;;
56233;SDS011;42141;53.240;6.580;2023-03-14T02:03:46;22.02;;;2.78;;
56233;SDS011;42141;53.240;6.580;2023-03-14T02:06:17;21.40;;;2.40;;
56233;SDS011;42141;53.240;6.580;2023-03-14T02:08:47;14.52;;;2.22;;
56233;SDS011;42141;53.240;6.580;2023-03-14T02:11:13;11.35;;;2.08;;
56233;SDS011;42141;53.240;6.580;2023-03-14T02:13:39;16.70;;;2.65;;
56233;SDS011;42141;53.240;6.580;2023-03-14T02:16:05;16.45;;;3.85;;
56233;SDS011;42141;53.240;6.580;2023-03-14T02:18:31;10.10;;;1.67;;
56233;SDS011;42141;53.240;6.580;2023-03-14T02:27:23;17.98;;;2.30;;
56233;SDS011;42141;53.240;6.580;2023-03-14T02:29:39;16.50;;;2.28;;
56233;SDS011;42141;53.240;6.580;2023-03-14T02:32:27;13.95;;;1.88;;
56233;SDS011;42141;53.240;6.580;2023-03-14T02:34:57;13.82;;;2.35;;
56233;SDS011;42141;53.240;6.580;2023-03-14T02:37:32;14.30;;;2.58;;
56233;SDS011;42141;53.240;6.580;2023-03-14T02:40:01;14.00;;;2.30;;
56233;SDS011;42141;53.240;6.580;2023-03-14T02:42:29;14.13;;;2.10;;
56233;SDS011;42141;53.240;6.580;2023-03-14T02:45:41;12.25;;;1.88;;
56233;SDS011;42141;53.240;6.580;2023-03-14T02:47:45;17.33;;;2.22;;
56233;SDS011;42141;53.240;6.580;2023-03-14T02:50:20;13.18;;;2.85;;
56233;SDS011;42141;53.240;6.580;2023-03-14T02:52:49;14.77;;;2.47;;
56233;SDS011;42141;53.240;6.580;2023-03-14T02:55:19;17.70;;;2.53;;
56233;SDS011;42141;53.240;6.580;2023-03-14T02:57:48;12.27;;;1.83;;
56233;SDS011;42141;53.240;6.580;2023-03-14T03:00:15;13.27;;;2.85;;
56233;SDS011;42141;53.240;6.580;2023-03-14T03:02:41;10.82;;;2.30;;
56233;SDS011;42141;53.240;6.580;2023-03-14T03:05:07;13.50;;;3.17;;
56233;SDS011;42141;53.240;6.580;2023-03-14T03:07:33;17.40;;;1.85;;
56233;SDS011;42141;53.240;6.580;2023-03-14T03:09:58;12.10;;;1.90;;
56233;SDS011;42141;53.240;6.580;2023-03-14T03:12:24;13.02;;;2.80;;
56233;SDS011;42141;53.240;6.580;2023-03-14T03:14:50;11.40;;;2.67;;
56233;SDS011;42141;53.240;6.580;2023-03-14T03:17:16;10.52;;;1.80;;
56233;SDS011;42141;53.240;6.580;2023-03-14T03:19:42;13.73;;;2.00;;
56233;SDS011;42141;53.240;6.580;2023-03-14T03:22:07;12.05;;;2.05;;
56233;SDS011;42141;53.240;6.580;2023-03-14T03:24:33;10.68;;;2.08;;
56233;SDS011;42141;53.240;6.580;2023-03-14T03:26:59;12.07;;;1.90;;
56233;SDS011;42141;53.240;6.580;2023-03-14T03:29:24;14.50;;;3.05;;
56233;SDS011;42141;53.240;6.580;2023-03-14T03:31:50;12.48;;;3.15;;
56233;SDS011;42141;53.240;6.580;2023-03-14T03:34:16;16.77;;;3.50;;
56233;SDS011;42141;53.240;6.580;2023-03-14T03:36:42;12.27;;;2.25;;
56233;SDS011;42141;53.240;6.580;2023-03-14T03:39:07;16.33;;;2.45;;
56233;SDS011;42141;53.240;6.580;2023-03-14T03:41:33;15.57;;;2.88;;
56233;SDS011;42141;53.240;6.580;2023-03-14T03:43:59;16.55;;;2.70;;
56233;SDS011;42141;53.240;6.580;2023-03-14T03:46:25;13.95;;;2.50;;
56233;SDS011;42141;53.240;6.580;2023-03-14T03:48:56;8.18;;;2.00;;
56233;SDS011;42141;53.240;6.580;2023-03-14T03:51:22;15.73;;;2.33;;
56233;SDS011;42141;53.240;6.580;2023-03-14T03:53:48;11.57;;;2.42;;
56233;SDS011;42141;53.240;6.580;2023-03-14T03:56:14;23.45;;;4.15;;
56233;SDS011;42141;53.240;6.580;2023-03-14T03:58:39;23.38;;;2.67;;
56233;SDS011;42141;53.240;6.580;2023-03-14T04:01:07;13.63;;;2.78;;
56233;SDS011;42141;53.240;6.580;2023-03-14T04:03:34;16.38;;;2.60;;
56233;SDS011;42141;53.240;6.580;2023-03-14T04:06:04;16.85;;;2.78;;
56233;SDS011;42141;53.240;6.580;2023-03-14T04:08:31;19.55;;;2.67;;
56233;SDS011;42141;53.240;6.580;2023-03-14T04:10:57;13.55;;;2.83;;
56233;SDS011;42141;53.240;6.580;2023-03-14T04:13:24;17.83;;;2.50;;
56233;SDS011;42141;53.240;6.580;2023-03-14T04:15:51;17.05;;;3.05;;
56233;SDS011;42141;53.240;6.580;2023-03-14T04:18:17;21.48;;;3.95;;
56233;SDS011;42141;53.240;6.580;2023-03-14T04:20:43;29.75;;;4.07;;
56233;SDS011;42141;53.240;6.580;2023-03-14T04:23:09;21.65;;;2.60;;
56233;SDS011;42141;53.240;6.580;2023-03-14T04:25:35;25.42;;;3.22;;
56233;SDS011;42141;53.240;6.580;2023-03-14T04:28:01;27.83;;;3.83;;
56233;SDS011;42141;53.240;6.580;2023-03-14T04:30:29;22.70;;;5.65;;
56233;SDS011;42141;53.240;6.580;2023-03-14T04:32:55;15.25;;;3.35;;
56233;SDS011;42141;53.240;6.580;2023-03-14T04:35:22;27.90;;;4.47;;
56233;SDS011;42141;53.240;6.580;2023-03-14T04:37:47;19.80;;;3.38;;
56233;SDS011;42141;53.240;6.580;2023-03-14T04:40:14;21.65;;;3.85;;
56233;SDS011;42141;53.240;6.580;2023-03-14T04:42:40;24.55;;;5.20;;
56233;SDS011;42141;53.240;6.580;2023-03-14T04:45:06;20.38;;;3.40;;
56233;SDS011;42141;53.240;6.580;2023-03-14T04:47:32;15.93;;;3.70;;
56233;SDS011;42141;53.240;6.580;2023-03-14T04:49:58;18.45;;;3.67;;
56233;SDS011;42141;53.240;6.580;2023-03-14T04:52:24;20.98;;;3.75;;
56233;SDS011;42141;53.240;6.580;2023-03-14T04:54:50;13.27;;;4.00;;
56233;SDS011;42141;53.240;6.580;2023-03-14T04:57:16;18.73;;;5.03;;
56233;SDS011;42141;53.240;6.580;2023-03-14T04:59:42;13.63;;;4.40;;
56233;SDS011;42141;53.240;6.580;2023-03-14T05:02:07;18.33;;;4.00;;
56233;SDS011;42141;53.240;6.580;2023-03-14T05:04:33;20.55;;;4.65;;
56233;SDS011;42141;53.240;6.580;2023-03-14T05:06:59;13.45;;;4.82;;
56233;SDS011;42141;53.240;6.580;2023-03-14T05:09:25;18.65;;;4.65;;
56233;SDS011;42141;53.240;6.580;2023-03-14T05:11:51;18.52;;;5.03;;
56233;SDS011;42141;53.240;6.580;2023-03-14T05:14:17;13.35;;;4.28;;
56233;SDS011;42141;53.240;6.580;2023-03-14T05:16:43;15.15;;;4.65;;
56233;SDS011;42141;53.240;6.580;2023-03-14T05:19:09;16.70;;;4.82;;
56233;SDS011;42141;53.240;6.580;2023-03-14T05:21:36;10.82;;;4.35;;
56233;SDS011;42141;53.240;6.580;2023-03-14T05:24:02;14.07;;;4.53;;
56233;SDS011;42141;53.240;6.580;2023-03-14T05:26:28;19.23;;;5.00;;
56233;SDS011;42141;53.240;6.580;2023-03-14T05:28:54;12.77;;;3.72;;
56233;SDS011;42141;53.240;6.580;2023-03-14T05:31:21;9.10;;;3.92;;
56233;SDS011;42141;53.240;6.580;2023-03-14T05:33:46;13.93;;;4.45;;
56233;SDS011;42141;53.240;6.580;2023-03-14T05:36:12;6.97;;;3.55;;
56233;SDS011;42141;53.240;6.580;2023-03-14T05:38:38;14.85;;;3.53;;
56233;SDS011;42141;53.240;6.580;2023-03-14T05:41:03;12.18;;;4.35;;
56233;SDS011;42141;53.240;6.580;2023-03-14T05:43:29;11.13;;;4.82;;
56233;SDS011;42141;53.240;6.580;2023-03-14T05:45:55;15.85;;;4.03;;
56233;SDS011;42141;53.240;6.580;2023-03-14T05:48:21;12.77;;;4.07;;
56233;SDS011;42141;53.240;6.580;2023-03-14T05:50:47;12.02;;;4.00;;
56233;SDS011;42141;53.240;6.580;2023-03-14T05:53:13;16.42;;;5.03;;
56233;SDS011;42141;53.240;6.580;2023-03-14T05:55:39;11.35;;;3.20;;
56233;SDS011;42141;53.240;6.580;2023-03-14T05:58:05;8.18;;;4.40;;
56233;SDS011;42141;53.240;6.580;2023-03-14T06:00:31;7.78;;;2.80;;
56233;SDS011;42141;53.240;6.580;2023-03-14T06:02:57;11.70;;;3.22;;
56233;SDS011;42141;53.240;6.580;2023-03-14T06:05:23;10.80;;;2.90;;
56233;SDS011;42141;53.240;6.580;2023-03-14T06:07:48;7.45;;;2.53;;
56233;SDS011;42141;53.240;6.580;2023-03-14T06:10:14;4.70;;;2.40;;
56233;SDS011;42141;53.240;6.580;2023-03-14T06:12:40;6.22;;;2.63;;
56233;SDS011;42141;53.240;6.580;2023-03-14T06:15:06;5.55;;;2.13;;
56233;SDS011;42141;53.240;6.580;2023-03-14T06:17:32;5.78;;;2.15;;
56233;SDS011;42141;53.240;6.580;2023-03-14T06:19:58;7.65;;;1.98;;
56233;SDS011;42141;53.240;6.580;2023-03-14T06:22:23;9.23;;;1.67;;
56233;SDS011;42141;53.240;6.580;2023-03-14T06:24:49;4.15;;;1.42;;
56233;SDS011;42141;53.240;6.580;2023-03-14T06:27:15;6.85;;;1.08;;
56233;SDS011;42141;53.240;6.580;2023-03-14T06:29:41;3.20;;;0.70;;
56233;SDS011;42141;53.240;6.580;2023-03-14T06:32:07;7.80;;;0.98;;
56233;SDS011;42141;53.240;6.580;2023-03-14T06:34:32;7.30;;;0.80;;
56233;SDS011;42141;53.240;6.580;2023-03-14T06:36:58;7.20;;;1.17;;
56233;SDS011;42141;53.240;6.580;2023-03-14T06:39:24;11.60;;;1.13;;
56233;SDS011;42141;53.240;6.580;2023-03-14T06:41:50;17.75;;;1.42;;
56233;SDS011;42141;53.240;6.580;2023-03-14T06:44:15;15.40;;;2.05;;
56233;SDS011;42141;53.240;6.580;2023-03-14T06:46:41;16.25;;;1.70;;
56233;SDS011;42141;53.240;6.580;2023-03-14T06:49:07;12.48;;;1.50;;
56233;SDS011;42141;53.240;6.580;2023-03-14T06:51:33;14.50;;;1.48;;
56233;SDS011;42141;53.240;6.580;2023-03-14T06:53:59;17.02;;;1.58;;
56233;SDS011;42141;53.240;6.580;2023-03-14T06:56:24;16.75;;;2.08;;
56233;SDS011;42141;53.240;6.580;2023-03-14T06:58:50;12.00;;;1.23;;
56233;SDS011;42141;53.240;6.580;2023-03-14T07:01:23;13.73;;;1.40;;
56233;SDS011;42141;53.240;6.580;2023-03-14T07:03:50;9.73;;;1.58;;
56233;SDS011;42141;53.240;6.580;2023-03-14T07:06:16;13.07;;;1.30;;
56233;SDS011;42141;53.240;6.580;2023-03-14T07:08:42;4.72;;;0.90;;
56233;SDS011;42141;53.240;6.580;2023-03-14T07:11:08;10.38;;;1.15;;
56233;SDS011;42141;53.240;6.580;2023-03-14T07:13:36;3.10;;;0.77;;
56233;SDS011;42141;53.240;6.580;2023-03-14T07:16:05;8.10;;;0.98;;
56233;SDS011;42141;53.240;6.580;2023-03-14T07:18:31;9.20;;;0.63;;
56233;SDS011;42141;53.240;6.580;2023-03-14T07:20:57;10.13;;;0.90;;
56233;SDS011;42141;53.240;6.580;2023-03-14T07:23:23;9.63;;;0.65;;
56233;SDS011;42141;53.240;6.580;2023-03-14T07:25:48;10.60;;;0.88;;
56233;SDS011;42141;53.240;6.580;2023-03-14T07:28:15;6.20;;;0.45;;
56233;SDS011;42141;53.240;6.580;2023-03-14T07:30:41;5.20;;;1.00;;
56233;SDS011;42141;53.240;6.580;2023-03-14T07:33:07;3.05;;;0.63;;
56233;SDS011;42141;53.240;6.580;2023-03-14T07:35:33;4.28;;;0.30;;
56233;SDS011;42141;53.240;6.580;2023-03-14T07:37:58;6.38;;;0.68;;
56233;SDS011;42141;53.240;6.580;2023-03-14T07:40:24;3.85;;;0.40;;
56233;SDS011;42141;53.240;6.580;2023-03-14T07:42:50;5.45;;;0.65;;
56233;SDS011;42141;53.240;6.580;2023-03-14T07:45:16;4.72;;;0.30;;
56233;SDS011;42141;53.240;6.580;2023-03-14T07:47:42;1.25;;;0.30;;
56233;SDS011;42141;53.240;6.580;2023-03-14T07:50:08;3.00;;;0.28;;
56233;SDS011;42141;53.240;6.580;2023-03-14T07:52:34;4.15;;;0.32;;
56233;SDS011;42141;53.240;6.580;2023-03-14T07:55:00;3.55;;;0.55;;
56233;SDS011;42141;53.240;6.580;2023-03-14T07:57:25;3.53;;;0.35;;
56233;SDS011;42141;53.240;6.580;2023-03-14T07:59:51;2.75;;;0.28;;
56233;SDS011;42141;53.240;6.580;2023-03-14T08:02:17;9.63;;;0.40;;
56233;SDS011;42141;53.240;6.580;2023-03-14T08:04:45;2.53;;;0.57;;
56233;SDS011;42141;53.240;6.580;2023-03-14T08:07:10;3.35;;;0.20;;
56233;SDS011;42141;53.240;6.580;2023-03-14T08:09:36;4.38;;;0.50;;
56233;SDS011;42141;53.240;6.580;2023-03-14T08:12:02;5.75;;;0.40;;
56233;SDS011;42141;53.240;6.580;2023-03-14T08:14:28;6.82;;;0.40;;
56233;SDS011;42141;53.240;6.580;2023-03-14T08:16:54;6.47;;;0.82;;
56233;SDS011;42141;53.240;6.580;2023-03-14T08:19:20;1.60;;;0.35;;
56233;SDS011;42141;53.240;6.580;2023-03-14T08:21:46;4.03;;;0.40;;
56233;SDS011;42141;53.240;6.580;2023-03-14T08:24:11;7.72;;;1.02;;
56233;SDS011;42141;53.240;6.580;2023-03-14T08:26:37;7.55;;;0.82;;
56233;SDS011;42141;53.240;6.580;2023-03-14T08:29:03;6.60;;;0.60;;
56233;SDS011;42141;53.240;6.580;2023-03-14T08:31:29;5.53;;;0.93;;
56233;SDS011;42141;53.240;6.580;2023-03-14T08:33:58;16.73;;;1.10;;
56233;SDS011;42141;53.240;6.580;2023-03-14T08:36:24;6.25;;;0.85;;
56233;SDS011;42141;53.240;6.580;2023-03-14T08:38:50;7.60;;;1.17;;
56233;SDS011;42141;53.240;6.580;2023-03-14T08:41:16;7.47;;;1.23;;
56233;SDS011;42141;53.240;6.580;2023-03-14T08:43:41;13.15;;;1.45;;
56233;SDS011;42141;53.240;6.580;2023-03-14T08:46:07;12.07;;;2.50;;
56233;SDS011;42141;53.240;6.580;2023-03-14T08:48:33;12.98;;;2.95;;
56233;SDS011;42141;53.240;6.580;2023-03-14T08:51:09;12.38;;;1.10;;
56233;SDS011;42141;53.240;6.580;2023-03-14T08:53:37;9.15;;;1.13;;
56233;SDS011;42141;53.240;6.580;2023-03-14T08:56:03;11.60;;;1.98;;
56233;SDS011;42141;53.240;6.580;2023-03-14T08:58:31;7.72;;;1.38;;
56233;SDS011;42141;53.240;6.580;2023-03-14T09:00:57;21.17;;;1.75;;
56233;SDS011;42141;53.240;6.580;2023-03-14T09:03:23;12.10;;;2.25;;
56233;SDS011;42141;53.240;6.580;2023-03-14T09:05:50;16.10;;;2.83;;
56233;SDS011;42141;53.240;6.580;2023-03-14T09:08:16;14.07;;;2.10;;
56233;SDS011;42141;53.240;6.580;2023-03-14T09:10:42;13.55;;;1.77;;
56233;SDS011;42141;53.240;6.580;2023-03-14T09:13:07;14.15;;;2.15;;
56233;SDS011;42141;53.240;6.580;2023-03-14T09:15:33;12.40;;;1.88;;
56233;SDS011;42141;53.240;6.580;2023-03-14T09:17:59;21.63;;;2.20;;
56233;SDS011;42141;53.240;6.580;2023-03-14T09:20:25;26.85;;;2.70;;
56233;SDS011;42141;53.240;6.580;2023-03-14T09:22:50;27.30;;;2.58;;
56233;SDS011;42141;53.240;6.580;2023-03-14T09:25:16;21.55;;;3.10;;
56233;SDS011;42141;53.240;6.580;2023-03-14T09:27:42;16.42;;;3.08;;
56233;SDS011;42141;53.240;6.580;2023-03-14T09:30:08;25.52;;;2.72;;
56233;SDS011;42141;53.240;6.580;2023-03-14T09:32:34;21.17;;;2.47;;
56233;SDS011;42141;53.240;6.580;2023-03-14T09:35:00;28.85;;;3.00;;
56233;SDS011;42141;53.240;6.580;2023-03-14T09:37:26;18.13;;;2.30;;
56233;SDS011;42141;53.240;6.580;2023-03-14T09:39:51;13.55;;;2.22;;
56233;SDS011;42141;53.240;6.580;2023-03-14T09:42:18;20.52;;;2.50;;
56233;SDS011;42141;53.240;6.580;2023-03-14T09:47:19;14.27;;;1.77;;
56233;SDS011;42141;53.240;6.580;2023-03-14T09:49:46;14.00;;;1.77;;
56233;SDS011;42141;53.240;6.580;2023-03-14T09:52:17;12.88;;;1.20;;
56233;SDS011;42141;53.240;6.580;2023-03-14T09:57:25;12.95;;;2.17;;
56233;SDS011;42141;53.240;6.580;2023-03-14T09:59:56;35.33;;;3.50;;
56233;SDS011;42141;53.240;6.580;2023-03-14T10:02:32;17.65;;;3.47;;
56233;SDS011;42141;53.240;6.580;2023-03-14T10:05:00;24.45;;;3.22;;
56233;SDS011;42141;53.240;6.580;2023-03-14T10:07:30;19.17;;;1.92;;
56233;SDS011;42141;53.240;6.580;2023-03-14T10:09:57;15.32;;;1.80;;
56233;SDS011;42141;53.240;6.580;2023-03-14T10:12:34;28.85;;;2.53;;
56233;SDS011;42141;53.240;6.580;2023-03-14T10:15:08;22.70;;;3.50;;
56233;SDS011;42141;53.240;6.580;2023-03-14T10:17:40;18.25;;;2.30;;
56233;SDS011;42141;53.240;6.580;2023-03-14T10:20:14;22.85;;;3.15;;
56233;SDS011;42141;53.240;6.580;2023-03-14T10:25:41;25.55;;;2.72;;
56233;SDS011;42141;53.240;6.580;2023-03-14T10:31:07;12.32;;;1.73;;
56233;SDS011;42141;53.240;6.580;2023-03-14T10:33:35;15.10;;;2.28;;
56233;SDS011;42141;53.240;6.580;2023-03-14T10:36:14;14.60;;;2.30;;
56233;SDS011;42141;53.240;6.580;2023-03-14T10:38:40;12.38;;;2.25;;
56233;SDS011;42141;53.240;6.580;2023-03-14T10:41:14;10.63;;;1.52;;
56233;SDS011;42141;53.240;6.580;2023-03-14T10:43:45;17.63;;;1.83;;
56233;SDS011;42141;53.240;6.580;2023-03-14T10:46:17;19.35;;;2.45;;
56233;SDS011;42141;53.240;6.580;2023-03-14T10:48:43;14.38;;;2.65;;
56233;SDS011;42141;53.240;6.580;2023-03-14T10:53:59;11.65;;;1.80;;
56233;SDS011;42141;53.240;6.580;2023-03-14T10:56:37;26.63;;;2.15;;
56233;SDS011;42141;53.240;6.580;2023-03-14T10:59:03;10.05;;;1.45;;
56233;SDS011;42141;53.240;6.580;2023-03-14T11:01:55;8.85;;;1.00;;
56233;SDS011;42141;53.240;6.580;2023-03-14T11:12:55;10.30;;;1.13;;
56233;SDS011;42141;53.240;6.580;2023-03-14T11:28:50;8.35;;;1.38;;
56233;SDS011;42141;53.240;6.580;2023-03-14T11:31:31;8.95;;;1.02;;
56233;SDS011;42141;53.240;6.580;2023-03-14T11:36:31;7.45;;;0.80;;
56233;SDS011;42141;53.240;6.580;2023-03-14T11:39:02;4.57;;;0.90;;
56233;SDS011;42141;53.240;6.580;2023-03-14T11:41:44;12.10;;;1.35;;
56233;SDS011;42141;53.240;6.580;2023-03-14T11:44:51;8.15;;;0.70;;
56233;SDS011;42141;53.240;6.580;2023-03-14T11:49:51;9.30;;;1.65;;
56233;SDS011;42141;53.240;6.580;2023-03-14T11:52:36;10.30;;;1.10;;
56233;SDS011;42141;53.240;6.580;2023-03-14T11:55:37;9.20;;;0.90;;
56233;SDS011;42141;53.240;6.580;2023-03-14T11:57:56;8.98;;;0.93;;
56233;SDS011;42141;53.240;6.580;2023-03-14T12:00:26;10.35;;;1.40;;
56233;SDS011;42141;53.240;6.580;2023-03-14T12:11:04;17.38;;;1.00;;
56233;SDS011;42141;53.240;6.580;2023-03-14T12:13:45;8.65;;;1.08;;
56233;SDS011;42141;53.240;6.580;2023-03-14T12:18:48;13.00;;;1.20;;
56233;SDS011;42141;53.240;6.580;2023-03-14T12:21:15;13.48;;;1.63;;
56233;SDS011;42141;53.240;6.580;2023-03-14T12:23:42;10.05;;;1.50;;
56233;SDS011;42141;53.240;6.580;2023-03-14T12:26:14;9.88;;;1.20;;
56233;SDS011;42141;53.240;6.580;2023-03-14T12:28:44;13.02;;;3.08;;
56233;SDS011;42141;53.240;6.580;2023-03-14T12:39:29;9.40;;;2.30;;
56233;SDS011;42141;53.240;6.580;2023-03-14T12:42:13;13.45;;;1.92;;
56233;SDS011;42141;53.240;6.580;2023-03-14T12:44:41;22.52;;;3.47;;
56233;SDS011;42141;53.240;6.580;2023-03-14T12:49:46;11.23;;;1.70;;
56233;SDS011;42141;53.240;6.580;2023-03-14T12:52:14;12.85;;;1.25;;
56233;SDS011;42141;53.240;6.580;2023-03-14T12:54:51;9.88;;;1.60;;
56233;SDS011;42141;53.240;6.580;2023-03-14T13:05:20;8.82;;;1.13;;
56233;SDS011;42141;53.240;6.580;2023-03-14T13:10:22;12.50;;;1.35;;
56233;SDS011;42141;53.240;6.580;2023-03-14T13:15:34;6.40;;;0.88;;
56233;SDS011;42141;53.240;6.580;2023-03-14T13:18:11;6.88;;;1.05;;
56233;SDS011;42141;53.240;6.580;2023-03-14T13:20:58;8.45;;;0.77;;
56233;SDS011;42141;53.240;6.580;2023-03-14T13:23:55;15.80;;;1.10;;
56233;SDS011;42141;53.240;6.580;2023-03-14T13:26:36;8.20;;;0.70;;
56233;SDS011;42141;53.240;6.580;2023-03-14T13:29:08;6.57;;;1.23;;
56233;SDS011;42141;53.240;6.580;2023-03-14T13:31:43;12.05;;;1.23;;
56233;SDS011;42141;53.240;6.580;2023-03-14T13:34:10;4.85;;;0.73;;
56233;SDS011;42141;53.240;6.580;2023-03-14T13:36:36;9.98;;;1.08;;
56233;SDS011;42141;53.240;6.580;2023-03-14T13:39:03;6.57;;;2.10;;
56233;SDS011;42141;53.240;6.580;2023-03-14T13:44:03;7.47;;;0.93;;
56233;SDS011;42141;53.240;6.580;2023-03-14T13:46:33;5.63;;;1.20;;
56233;SDS011;42141;53.240;6.580;2023-03-14T13:49:03;6.18;;;0.82;;
56233;SDS011;42141;53.240;6.580;2023-03-14T13:51:31;6.43;;;1.17;;
56233;SDS011;42141;53.240;6.580;2023-03-14T13:54:00;7.15;;;1.15;;
56233;SDS011;42141;53.240;6.580;2023-03-14T13:56:29;12.98;;;1.55;;
56233;SDS011;42141;53.240;6.580;2023-03-14T13:58:57;9.82;;;1.60;;
56233;SDS011;42141;53.240;6.580;2023-03-14T14:01:30;4.00;;;0.57;;
56233;SDS011;42141;53.240;6.580;2023-03-14T14:04:06;7.45;;;1.27;;
56233;SDS011;42141;53.240;6.580;2023-03-14T14:06:35;15.50;;;1.63;;
56233;SDS011;42141;53.240;6.580;2023-03-14T14:09:08;5.80;;;0.90;;
56233;SDS011;42141;53.240;6.580;2023-03-14T14:14:03;16.25;;;1.60;;
56233;SDS011;42141;53.240;6.580;2023-03-14T14:16:31;8.60;;;1.17;;
56233;SDS011;42141;53.240;6.580;2023-03-14T14:18:57;11.98;;;2.53;;
56233;SDS011;42141;53.240;6.580;2023-03-14T14:21:25;5.40;;;0.65;;
56233;SDS011;42141;53.240;6.580;2023-03-14T14:23:51;11.13;;;1.35;;
56233;SDS011;42141;53.240;6.580;2023-03-14T14:26:18;6.32;;;1.08;;
56233;SDS011;42141;53.240;6.580;2023-03-14T14:28:45;6.85;;;1.00;;
56233;SDS011;42141;53.240;6.580;2023-03-14T14:36:29;9.25;;;1.10;;
56233;SDS011;42141;53.240;6.580;2023-03-14T14:41:48;12.63;;;1.45;;
56233;SDS011;42141;53.240;6.580;2023-03-14T14:44:17;11.48;;;1.15;;
56233;SDS011;42141;53.240;6.580;2023-03-14T14:46:54;9.80;;;1.33;;
56233;SDS011;42141;53.240;6.580;2023-03-14T14:49:20;11.07;;;1.35;;
56233;SDS011;42141;53.240;6.580;2023-03-14T14:51:59;9.68;;;1.15;;
56233;SDS011;42141;53.240;6.580;2023-03-14T14:54:43;11.98;;;1.38;;
56233;SDS011;42141;53.240;6.580;2023-03-14T14:57:23;15.15;;;1.20;;
56233;SDS011;42141;53.240;6.580;2023-03-14T14:59:54;6.95;;;1.15;;
56233;SDS011;42141;53.240;6.580;2023-03-14T15:04:58;13.10;;;0.90;;
56233;SDS011;42141;53.240;6.580;2023-03-14T15:07:24;12.23;;;1.48;;
56233;SDS011;42141;53.240;6.580;2023-03-14T15:09:50;11.23;;;1.23;;
56233;SDS011;42141;53.240;6.580;2023-03-14T15:12:15;13.30;;;0.80;;
56233;SDS011;42141;53.240;6.580;2023-03-14T15:14:41;9.55;;;1.10;;
56233;SDS011;42141;53.240;6.580;2023-03-14T15:17:09;8.27;;;0.75;;
56233;SDS011;42141;53.240;6.580;2023-03-14T15:19:36;10.60;;;0.98;;
56233;SDS011;42141;53.240;6.580;2023-03-14T15:22:02;7.63;;;0.90;;
56233;SDS011;42141;53.240;6.580;2023-03-14T15:24:27;10.43;;;0.82;;
56233;SDS011;42141;53.240;6.580;2023-03-14T15:26:53;8.65;;;1.27;;
56233;SDS011;42141;53.240;6.580;2023-03-14T15:29:19;4.10;;;0.95;;
56233;SDS011;42141;53.240;6.580;2023-03-14T15:31:44;6.90;;;0.73;;
56233;SDS011;42141;53.240;6.580;2023-03-14T15:34:10;7.55;;;0.77;;
56233;SDS011;42141;53.240;6.580;2023-03-14T15:36:36;10.52;;;1.25;;
56233;SDS011;42141;53.240;6.580;2023-03-14T15:39:04;5.47;;;1.05;;
56233;SDS011;42141;53.240;6.580;2023-03-14T15:41:31;7.57;;;1.10;;
56233;SDS011;42141;53.240;6.580;2023-03-14T15:43:57;7.57;;;1.20;;
56233;SDS011;42141;53.240;6.580;2023-03-14T15:46:23;16.88;;;1.20;;
56233;SDS011;42141;53.240;6.580;2023-03-14T15:48:49;9.27;;;1.38;;
56233;SDS011;42141;53.240;6.580;2023-03-14T15:51:16;9.63;;;1.00;;
56233;SDS011;42141;53.240;6.580;2023-03-14T15:53:43;4.18;;;0.82;;
56233;SDS011;42141;53.240;6.580;2023-03-14T15:56:13;3.72;;;1.00;;
56233;SDS011;42141;53.240;6.580;2023-03-14T15:58:40;12.05;;;1.13;;
56233;SDS011;42141;53.240;6.580;2023-03-14T16:01:07;7.97;;;1.05;;
56233;SDS011;42141;53.240;6.580;2023-03-14T16:03:36;6.40;;;0.52;;
56233;SDS011;42141;53.240;6.580;2023-03-14T16:06:02;7.78;;;0.93;;
56233;SDS011;42141;53.240;6.580;2023-03-14T16:08:28;10.50;;;1.05;;
56233;SDS011;42141;53.240;6.580;2023-03-14T16:10:55;11.65;;;1.40;;
56233;SDS011;42141;53.240;6.580;2023-03-14T16:13:22;11.82;;;1.27;;
56233;SDS011;42141;53.240;6.580;2023-03-14T16:15:58;11.55;;;1.52;;
56233;SDS011;42141;53.240;6.580;2023-03-14T16:18:27;10.27;;;0.75;;
56233;SDS011;42141;53.240;6.580;2023-03-14T16:20:54;5.72;;;1.00;;
56233;SDS011;42141;53.240;6.580;2023-03-14T16:23:22;6.75;;;0.85;;